createdAt,value
2022-11-16T00:00:24.807Z,0
2022-11-16T00:01:24.759Z,0
2022-11-16T00:02:24.801Z,0
2022-11-16T00:03:24.622Z,0
2022-11-16T00:04:24.843Z,0
2022-11-16T00:05:31.248Z,0
2022-11-16T00:06:23.980Z,0
2022-11-16T00:07:25.476Z,0
2022-11-16T00:09:24.073Z,0
2022-11-16T00:10:24.460Z,0
2022-11-16T00:11:24.841Z,0
2022-11-16T00:12:25.030Z,0
2022-11-16T00:13:24.751Z,0
2022-11-16T00:14:24.075Z,0
2022-11-16T00:15:24.522Z,0
2022-11-16T00:16:24.863Z,0
2022-11-16T00:17:24.540Z,1
2022-11-16T00:18:24.934Z,1
2022-11-16T00:19:25.001Z,1
2022-11-16T00:20:24.229Z,1
2022-11-16T00:21:24.598Z,1
2022-11-16T00:22:25.079Z,1
2022-11-16T00:23:24.124Z,1
2022-11-16T00:24:24.565Z,1
2022-11-16T00:26:24.167Z,1
2022-11-16T00:27:24.769Z,1
2022-11-16T00:28:25.102Z,1
2022-11-16T00:29:24.168Z,1
2022-11-16T00:30:24.145Z,1
2022-11-16T00:33:24.065Z,1
2022-11-16T00:34:24.254Z,1
2022-11-16T00:35:24.859Z,1
2022-11-16T00:36:24.406Z,1
2022-11-16T00:37:25.056Z,1
2022-11-16T00:38:24.346Z,1
2022-11-16T00:39:24.195Z,1
2022-11-16T00:40:24.576Z,1
2022-11-16T00:41:24.941Z,1
2022-11-16T00:42:24.345Z,1
2022-11-16T00:43:24.479Z,1
2022-11-16T00:44:24.872Z,1
2022-11-16T00:45:24.202Z,1
2022-11-16T00:46:24.661Z,1
2022-11-16T00:47:24.186Z,6
2022-11-16T00:48:24.587Z,6
2022-11-16T00:49:24.878Z,6
2022-11-16T00:50:24.177Z,6
2022-11-16T00:51:24.497Z,6
2022-11-16T00:54:24.885Z,6
2022-11-16T00:55:24.040Z,6
2022-11-16T00:56:24.500Z,6
2022-11-16T00:57:24.136Z,6
2022-11-16T00:58:24.400Z,6
2022-11-16T00:59:24.923Z,6
2022-11-16T01:00:24.990Z,6
2022-11-16T01:01:25.726Z,6
2022-11-16T01:02:24.382Z,9
2022-11-16T01:03:24.674Z,9
2022-11-16T01:04:24.363Z,9
2022-11-16T01:05:24.604Z,9
2022-11-16T01:06:24.165Z,9
2022-11-16T01:07:25.036Z,9
2022-11-16T01:08:24.885Z,9
2022-11-16T01:09:24.198Z,9
2022-11-16T01:10:24.559Z,9
2022-11-16T01:11:24.811Z,9
2022-11-16T01:12:24.225Z,9
2022-11-16T01:13:24.836Z,9
2022-11-16T01:15:24.312Z,9
2022-11-16T01:17:24.703Z,4
2022-11-16T01:18:24.883Z,4
2022-11-16T01:20:25.087Z,4
2022-11-16T01:21:24.336Z,4
2022-11-16T01:22:24.331Z,4
2022-11-16T01:23:24.653Z,4
2022-11-16T01:24:24.444Z,4
2022-11-16T01:25:24.837Z,4
2022-11-16T01:26:24.979Z,4
2022-11-16T01:27:24.250Z,4
2022-11-16T01:28:24.209Z,4
2022-11-16T01:29:24.504Z,4
2022-11-16T01:30:25.090Z,4
2022-11-16T01:31:24.970Z,4
2022-11-16T01:32:24.537Z,7
2022-11-16T01:33:24.820Z,7
2022-11-16T01:35:23.901Z,7
2022-11-16T01:36:24.132Z,7
2022-11-16T01:37:24.958Z,7
2022-11-16T01:38:28.542Z,7
2022-11-16T01:39:24.869Z,7
2022-11-16T01:40:24.752Z,7
2022-11-16T01:41:24.143Z,7
2022-11-16T01:42:24.521Z,7
2022-11-16T01:43:24.665Z,7
2022-11-16T01:44:24.836Z,7
2022-11-16T01:45:25.013Z,7
2022-11-16T01:46:24.679Z,7
2022-11-16T01:47:25.077Z,7
2022-11-16T01:48:24.754Z,7
2022-11-16T01:49:24.740Z,7
2022-11-16T01:50:25.073Z,7
2022-11-16T01:51:24.424Z,7
2022-11-16T01:52:24.168Z,7
2022-11-16T01:53:24.335Z,7
2022-11-16T01:54:24.906Z,7
2022-11-16T01:55:24.185Z,7
2022-11-16T01:56:24.294Z,7
2022-11-16T01:57:24.693Z,7
2022-11-16T01:59:24.409Z,7
2022-11-16T02:00:24.839Z,7
2022-11-16T02:01:24.674Z,7
2022-11-16T02:03:24.090Z,0
2022-11-16T02:04:24.888Z,0
2022-11-16T02:06:24.777Z,0
2022-11-16T02:07:25.566Z,0
2022-11-16T02:08:24.345Z,0
2022-11-16T02:09:24.200Z,0
2022-11-16T02:10:24.397Z,0
2022-11-16T02:11:24.765Z,0
2022-11-16T02:12:24.456Z,0
2022-11-16T02:13:24.810Z,0
2022-11-16T02:14:24.327Z,0
2022-11-16T02:15:24.738Z,0
2022-11-16T02:16:24.576Z,0
2022-11-16T02:17:24.943Z,4
2022-11-16T02:18:24.327Z,4
2022-11-16T02:19:24.852Z,4
2022-11-16T02:20:24.136Z,4
2022-11-16T02:21:24.453Z,4
2022-11-16T02:22:24.980Z,4
2022-11-16T02:23:24.054Z,4
2022-11-16T02:24:24.460Z,4
2022-11-16T02:25:24.759Z,4
2022-11-16T02:26:24.147Z,4
2022-11-16T02:29:24.936Z,4
2022-11-16T02:30:24.742Z,4
2022-11-16T02:31:24.019Z,4
2022-11-16T02:32:24.859Z,5
2022-11-16T02:33:24.190Z,5
2022-11-16T02:34:25.043Z,5
2022-11-16T02:35:24.320Z,5
2022-11-16T02:36:24.552Z,5
2022-11-16T02:37:24.880Z,5
2022-11-16T02:38:24.867Z,5
2022-11-16T02:39:24.202Z,5
2022-11-16T02:40:24.915Z,5
2022-11-16T02:41:24.175Z,5
2022-11-16T02:42:24.656Z,5
2022-11-16T02:43:24.917Z,5
2022-11-16T02:44:24.606Z,5
2022-11-16T02:45:24.905Z,5
2022-11-16T02:46:24.695Z,5
2022-11-16T02:47:24.981Z,6
2022-11-16T02:48:24.316Z,6
2022-11-16T02:49:24.779Z,6
2022-11-16T02:51:25.183Z,6
2022-11-16T02:53:24.836Z,6
2022-11-16T02:54:24.022Z,6
2022-11-16T02:55:24.911Z,6
2022-11-16T02:56:24.307Z,6
2022-11-16T02:57:24.561Z,6
2022-11-16T02:58:24.417Z,6
2022-11-16T03:00:24.981Z,6
2022-11-16T03:01:25.334Z,6
2022-11-16T03:02:24.870Z,4
2022-11-16T03:03:24.187Z,4
2022-11-16T03:04:24.347Z,4
2022-11-16T03:05:24.700Z,4
2022-11-16T03:06:25.065Z,4
2022-11-16T03:07:24.872Z,4
2022-11-16T03:08:25.037Z,4
2022-11-16T03:09:24.310Z,4
2022-11-16T03:10:24.244Z,4
2022-11-16T03:11:24.297Z,4
2022-11-16T03:12:24.544Z,4
2022-11-16T03:13:24.588Z,4
2022-11-16T03:14:24.112Z,4
2022-11-16T03:15:24.840Z,4
2022-11-16T03:16:24.802Z,4
2022-11-16T03:17:24.415Z,3
2022-11-16T03:18:24.490Z,3
2022-11-16T03:19:24.873Z,3
2022-11-16T03:20:24.424Z,3
2022-11-16T03:21:25.073Z,3
2022-11-16T03:22:24.514Z,3
2022-11-16T03:23:25.026Z,3
2022-11-16T03:24:24.225Z,3
2022-11-16T03:25:24.634Z,3
2022-11-16T03:26:24.900Z,3
2022-11-16T03:27:24.238Z,3
2022-11-16T03:28:24.825Z,3
2022-11-16T03:29:24.159Z,3
2022-11-16T03:31:24.877Z,3
2022-11-16T03:32:24.140Z,0
2022-11-16T03:33:24.591Z,0
2022-11-16T03:34:24.940Z,0
2022-11-16T03:35:24.235Z,0
2022-11-16T03:36:24.394Z,0
2022-11-16T03:37:24.606Z,0
2022-11-16T03:39:24.409Z,0
2022-11-16T03:40:24.546Z,0
2022-11-16T03:41:25.000Z,0
2022-11-16T03:42:25.008Z,0
2022-11-16T03:43:24.887Z,0
2022-11-16T03:44:24.829Z,0
2022-11-16T03:45:24.608Z,0
2022-11-16T03:46:24.323Z,0
2022-11-16T03:47:24.664Z,0
2022-11-16T03:48:24.945Z,0
2022-11-16T03:49:24.160Z,0
2022-11-16T03:50:24.454Z,0
2022-11-16T03:51:24.814Z,0
2022-11-16T03:52:24.599Z,0
2022-11-16T03:53:24.458Z,0
2022-11-16T03:54:24.775Z,0
2022-11-16T03:55:24.095Z,0
2022-11-16T03:56:24.642Z,0
2022-11-16T03:57:25.024Z,0
2022-11-16T03:58:24.324Z,0
2022-11-16T03:59:24.645Z,0
2022-11-16T04:00:24.582Z,0
2022-11-16T04:01:25.333Z,0
2022-11-16T04:02:24.718Z,0
2022-11-16T04:03:25.430Z,0
2022-11-16T04:05:25.585Z,0
2022-11-16T04:06:24.340Z,0
2022-11-16T04:07:25.248Z,0
2022-11-16T04:08:24.474Z,0
2022-11-16T04:09:24.728Z,0
2022-11-16T04:10:24.785Z,0
2022-11-16T04:11:24.178Z,0
2022-11-16T04:12:24.424Z,0
2022-11-16T04:13:24.885Z,0
2022-11-16T04:14:24.226Z,0
2022-11-16T04:15:24.575Z,0
2022-11-16T04:16:24.860Z,0
2022-11-16T04:17:24.092Z,1
2022-11-16T04:18:24.371Z,1
2022-11-16T04:19:24.653Z,1
2022-11-16T04:20:24.077Z,1
2022-11-16T04:21:24.447Z,1
2022-11-16T04:22:24.483Z,1
2022-11-16T04:23:24.740Z,1
2022-11-16T04:24:24.060Z,1
2022-11-16T04:25:24.655Z,1
2022-11-16T04:26:24.844Z,1
2022-11-16T04:27:24.125Z,1
2022-11-16T04:28:24.552Z,1
2022-11-16T04:30:25.059Z,1
2022-11-16T04:31:24.338Z,1
2022-11-16T04:32:24.742Z,3
2022-11-16T04:33:24.520Z,3
2022-11-16T04:34:24.937Z,3
2022-11-16T04:35:24.359Z,3
2022-11-16T04:37:24.492Z,3
2022-11-16T04:38:24.185Z,3
2022-11-16T04:39:25.090Z,3
2022-11-16T04:40:24.204Z,3
2022-11-16T04:41:24.591Z,3
2022-11-16T04:42:24.889Z,3
2022-11-16T04:43:24.202Z,3
2022-11-16T04:44:28.873Z,3
2022-11-16T04:45:25.003Z,3
2022-11-16T04:46:25.004Z,3
2022-11-16T04:47:24.320Z,3
2022-11-16T04:48:24.623Z,3
2022-11-16T04:50:24.725Z,3
2022-11-16T04:52:24.575Z,3
2022-11-16T04:53:24.889Z,3
2022-11-16T04:54:24.048Z,3
2022-11-16T04:55:24.412Z,3
2022-11-16T04:56:24.984Z,3
2022-11-16T04:57:24.852Z,3
2022-11-16T04:58:24.169Z,3
2022-11-16T04:59:24.294Z,3
2022-11-16T05:00:24.620Z,3
2022-11-16T05:01:24.882Z,3
2022-11-16T05:02:24.610Z,0
2022-11-16T05:03:24.986Z,0
2022-11-16T05:04:24.273Z,0
2022-11-16T05:05:24.729Z,0
2022-11-16T05:06:24.119Z,0
2022-11-16T05:07:25.009Z,0
2022-11-16T05:08:24.672Z,0
2022-11-16T05:09:24.988Z,0
2022-11-16T05:10:24.323Z,0
2022-11-16T05:11:24.794Z,0
2022-11-16T05:12:25.132Z,0
2022-11-16T05:13:24.377Z,0
2022-11-16T05:14:24.736Z,0
2022-11-16T05:15:24.320Z,0
2022-11-16T05:18:25.032Z,3
2022-11-16T05:19:24.586Z,3
2022-11-16T05:20:24.900Z,3
2022-11-16T05:21:24.978Z,3
2022-11-16T05:22:24.616Z,3
2022-11-16T05:23:24.909Z,3
2022-11-16T05:24:24.319Z,3
2022-11-16T05:25:24.340Z,3
2022-11-16T05:26:24.666Z,3
2022-11-16T05:27:25.029Z,3
2022-11-16T05:28:24.361Z,3
2022-11-16T05:29:24.706Z,3
2022-11-16T05:30:25.077Z,3
2022-11-16T05:31:24.947Z,3
2022-11-16T05:32:24.292Z,6
2022-11-16T05:33:24.636Z,6
2022-11-16T05:34:24.900Z,6
2022-11-16T05:35:24.292Z,6
2022-11-16T05:36:24.600Z,6
2022-11-16T05:37:24.921Z,6
2022-11-16T05:38:24.313Z,6
2022-11-16T05:40:24.046Z,6
2022-11-16T05:41:24.266Z,6
2022-11-16T05:42:24.606Z,6
2022-11-16T05:43:24.274Z,6
2022-11-16T05:45:31.700Z,6
2022-11-16T05:46:24.799Z,6
2022-11-16T05:47:24.179Z,4
2022-11-16T05:48:24.680Z,4
2022-11-16T05:49:24.975Z,4
2022-11-16T05:50:24.379Z,4
2022-11-16T05:51:24.646Z,4
2022-11-16T05:52:25.020Z,4
2022-11-16T05:53:24.219Z,4
2022-11-16T05:54:24.606Z,4
2022-11-16T05:55:24.887Z,4
2022-11-16T05:56:24.541Z,4
2022-11-16T05:57:24.995Z,4
2022-11-16T05:58:24.316Z,4
2022-11-16T05:59:28.810Z,4
2022-11-16T06:00:25.105Z,4
2022-11-16T06:01:24.833Z,4
2022-11-16T06:02:24.439Z,0
2022-11-16T06:03:25.147Z,0
2022-11-16T06:05:24.493Z,0
2022-11-16T06:06:24.397Z,0
2022-11-16T06:07:25.134Z,0
2022-11-16T06:08:24.254Z,0
2022-11-16T06:09:24.451Z,0
2022-11-16T06:10:24.102Z,0
2022-11-16T06:11:25.065Z,0
2022-11-16T06:12:24.422Z,0
2022-11-16T06:13:24.948Z,0
2022-11-16T06:14:24.292Z,0
2022-11-16T06:15:24.716Z,0
2022-11-16T06:17:24.592Z,1
2022-11-16T06:18:24.796Z,1
2022-11-16T06:19:26.992Z,1
2022-11-16T06:20:24.607Z,1
2022-11-16T06:21:24.254Z,1
2022-11-16T06:22:24.446Z,1
2022-11-16T06:23:24.887Z,1
2022-11-16T06:24:24.245Z,1
2022-11-16T06:25:24.636Z,1
2022-11-16T06:26:24.984Z,1
2022-11-16T06:27:24.404Z,1
2022-11-16T06:28:24.789Z,1
2022-11-16T06:29:24.988Z,1
2022-11-16T06:30:24.815Z,1
2022-11-16T06:31:24.549Z,1
2022-11-16T06:33:24.232Z,0
2022-11-16T06:34:24.839Z,0
2022-11-16T06:35:24.637Z,0
2022-11-16T06:36:25.145Z,0
2022-11-16T06:37:25.033Z,0
2022-11-16T06:38:24.379Z,0
2022-11-16T06:39:24.825Z,0
2022-11-16T06:40:25.078Z,0
2022-11-16T06:41:24.984Z,0
2022-11-16T06:42:24.463Z,0
2022-11-16T06:43:24.747Z,0
2022-11-16T06:44:24.145Z,0
2022-11-16T06:45:24.467Z,0
2022-11-16T06:46:24.817Z,0
2022-11-16T06:47:24.524Z,1
2022-11-16T06:49:25.042Z,1
2022-11-16T06:50:24.466Z,1
2022-11-16T06:51:24.162Z,1
2022-11-16T06:52:24.030Z,1
2022-11-16T06:54:24.538Z,1
2022-11-16T06:56:24.535Z,1
2022-11-16T06:58:24.501Z,1
2022-11-16T06:59:24.979Z,1
2022-11-16T07:00:24.179Z,1
2022-11-16T07:01:25.221Z,1
2022-11-16T07:02:24.985Z,1
2022-11-16T07:03:25.011Z,1
2022-11-16T07:04:25.705Z,1
2022-11-16T07:05:25.013Z,1
2022-11-16T07:06:24.243Z,1
2022-11-16T07:07:24.977Z,1
2022-11-16T07:08:24.976Z,1
2022-11-16T07:09:24.158Z,1
2022-11-16T07:10:24.494Z,1
2022-11-16T07:11:25.155Z,1
2022-11-16T07:12:24.430Z,1
2022-11-16T07:13:24.815Z,1
2022-11-16T07:14:24.200Z,1
2022-11-16T07:15:24.409Z,1
2022-11-16T07:16:24.611Z,1
2022-11-16T07:18:25.099Z,3
2022-11-16T07:20:25.748Z,3
2022-11-16T07:22:24.874Z,3
2022-11-16T07:24:24.450Z,3
2022-11-16T07:25:24.442Z,3
2022-11-16T07:26:25.539Z,3
2022-11-16T07:27:24.252Z,3
2022-11-16T07:28:24.630Z,3
2022-11-16T07:29:24.949Z,3
2022-11-16T07:30:24.340Z,3
2022-11-16T07:31:24.511Z,3
2022-11-16T07:32:24.788Z,3
2022-11-16T07:33:24.648Z,3
2022-11-16T07:34:24.919Z,3
2022-11-16T07:35:24.985Z,3
2022-11-16T07:36:25.437Z,3
2022-11-16T07:37:24.934Z,3
2022-11-16T07:39:24.178Z,3
2022-11-16T07:40:24.481Z,3
2022-11-16T07:41:24.477Z,3
2022-11-16T07:42:25.176Z,3
2022-11-16T07:43:24.728Z,3
2022-11-16T07:44:25.031Z,3
2022-11-16T07:45:24.814Z,3
2022-11-16T07:46:57.598Z,3
2022-11-16T07:48:25.043Z,1
2022-11-16T07:49:24.718Z,1
2022-11-16T07:50:24.889Z,1
2022-11-16T07:52:25.146Z,1
2022-11-16T07:53:24.971Z,1
2022-11-16T07:55:24.809Z,1
2022-11-16T07:57:24.880Z,1
2022-11-16T07:59:24.731Z,1
2022-11-16T08:00:25.012Z,1
2022-11-16T08:01:24.846Z,1
2022-11-16T08:02:25.157Z,1
2022-11-16T08:05:24.967Z,1
2022-11-16T08:07:25.705Z,1
2022-11-16T08:08:25.540Z,1
2022-11-16T08:10:25.809Z,1
2022-11-16T08:11:25.334Z,1
2022-11-16T08:13:24.928Z,1
2022-11-16T08:15:24.961Z,1
2022-11-16T08:20:24.812Z,0
2022-11-16T08:21:24.761Z,0
2022-11-16T08:22:25.351Z,0
2022-11-16T08:23:24.805Z,0
2022-11-16T08:24:25.498Z,0
2022-11-16T08:26:24.844Z,0
2022-11-16T08:29:24.840Z,0
2022-11-16T08:31:24.843Z,0
2022-11-16T08:32:25.162Z,0
2022-11-16T08:36:26.923Z,0
2022-11-16T08:37:24.725Z,0
2022-11-16T08:38:25.022Z,0
2022-11-16T08:40:25.344Z,0
2022-11-16T08:42:24.775Z,0
2022-11-16T08:43:24.931Z,0
2022-11-16T08:44:25.597Z,0
2022-11-16T08:45:25.015Z,0
2022-11-16T08:46:25.205Z,0
2022-11-16T08:50:24.807Z,1
2022-11-16T08:53:24.736Z,1
2022-11-16T08:56:25.361Z,1
2022-11-16T08:58:24.984Z,1
2022-11-16T09:02:25.427Z,0
2022-11-16T09:05:24.759Z,0
2022-11-16T09:06:25.175Z,0
2022-11-16T09:07:25.090Z,0
2022-11-16T09:08:25.029Z,0
2022-11-16T09:09:24.775Z,0
2022-11-16T09:12:25.235Z,0
2022-11-16T09:17:31.740Z,0
2022-11-16T09:21:24.185Z,0
2022-11-16T09:23:32.318Z,0
2022-11-16T09:26:25.515Z,0
2022-11-16T09:27:25.083Z,0
2022-11-16T09:28:25.170Z,0
2022-11-16T09:30:24.894Z,0
2022-11-16T09:32:24.884Z,1
2022-11-16T09:33:25.242Z,1
2022-11-16T09:34:25.087Z,1
2022-11-16T09:35:25.008Z,1
2022-11-16T09:39:35.488Z,1
2022-11-16T09:44:24.423Z,1
2022-11-16T09:49:29.865Z,4
2022-11-16T09:51:24.426Z,4
2022-11-16T09:55:28.607Z,4
2022-11-16T09:59:30.868Z,4
2022-11-16T10:16:25.072Z,1
2022-11-16T10:17:24.774Z,1
2022-11-16T10:20:32.523Z,1
2022-11-16T10:24:24.752Z,1
2022-11-16T10:26:24.678Z,1
2022-11-16T10:27:30.549Z,1
2022-11-16T10:40:24.988Z,0
2022-11-16T10:52:24.764Z,3
2022-11-16T10:53:25.069Z,3
2022-11-16T11:00:32.582Z,3
2022-11-16T11:15:32.433Z,3
2022-11-16T11:24:56.144Z,4
2022-11-16T11:28:24.974Z,4
2022-11-16T11:29:23.541Z,4
2022-11-16T11:32:32.147Z,5
2022-11-16T11:43:31.234Z,5
2022-11-16T11:48:10.839Z,5
2022-11-16T11:51:25.172Z,5
2022-11-16T11:53:24.850Z,5
2022-11-16T11:54:24.256Z,5
2022-11-16T12:01:31.845Z,5
2022-11-16T12:22:24.712Z,3
2022-11-16T12:31:24.477Z,3
2022-11-16T12:38:32.860Z,4
2022-11-16T12:41:23.503Z,4
2022-11-16T12:45:32.364Z,4
2022-11-16T12:51:31.523Z,4
2022-11-16T12:55:39.297Z,4
2022-11-16T13:01:25.509Z,4
2022-11-16T13:04:23.762Z,4
2022-11-16T13:14:03.057Z,4
2022-11-16T13:14:24.881Z,4
2022-11-16T13:15:24.783Z,4
2022-11-16T13:16:25.387Z,4
2022-11-16T13:17:24.938Z,3
2022-11-16T13:18:25.231Z,3
2022-11-16T13:19:24.947Z,3
2022-11-16T13:21:24.706Z,3
2022-11-16T13:22:25.077Z,3
2022-11-16T13:23:25.116Z,3
2022-11-16T13:24:24.524Z,3
2022-11-16T13:25:24.285Z,3
2022-11-16T13:26:24.039Z,3
2022-11-16T13:27:24.602Z,3
2022-11-16T13:28:27.116Z,3
2022-11-16T13:29:24.435Z,3
2022-11-16T13:30:25.161Z,3
2022-11-16T13:31:24.406Z,3
2022-11-16T13:32:24.974Z,3
2022-11-16T13:33:25.209Z,3
2022-11-16T13:34:24.851Z,3
2022-11-16T13:35:24.661Z,3
2022-11-16T13:36:24.738Z,3
2022-11-16T13:37:24.678Z,3
2022-11-16T13:38:25.030Z,3
2022-11-16T13:40:24.222Z,3
2022-11-16T13:41:25.288Z,3
2022-11-16T13:42:24.876Z,3
2022-11-16T13:43:24.999Z,3
2022-11-16T13:44:25.172Z,3
2022-11-16T13:45:24.457Z,3
2022-11-16T13:47:06.729Z,3
2022-11-16T13:48:24.908Z,1
2022-11-16T13:49:23.594Z,1
2022-11-16T13:54:58.279Z,1
2022-11-16T13:56:31.662Z,1
2022-11-16T14:20:32.552Z,3
2022-11-16T14:27:31.302Z,3
2022-11-16T14:35:24.876Z,1
2022-11-16T14:36:24.190Z,1
2022-11-16T14:37:24.568Z,1
2022-11-16T14:43:30.030Z,1
2022-11-16T15:20:23.570Z,0
2022-11-16T15:23:33.069Z,0
2022-11-16T15:24:43.019Z,0
2022-11-16T15:44:28.669Z,0
2022-11-16T15:45:28.328Z,0
2022-11-16T16:05:32.560Z,0
2022-11-16T16:11:29.675Z,0
2022-11-16T16:17:24.965Z,0
2022-11-16T16:21:24.392Z,0
2022-11-16T16:22:24.472Z,0
2022-11-16T16:27:24.576Z,0
2022-11-16T16:28:24.885Z,0
2022-11-16T16:36:24.511Z,0
2022-11-16T16:37:25.192Z,0
2022-11-16T16:38:24.311Z,0
2022-11-16T16:41:29.465Z,0
2022-11-16T16:46:24.803Z,0
2022-11-16T17:15:31.480Z,0
2022-11-16T17:20:24.881Z,1
2022-11-16T17:21:24.342Z,1
2022-11-16T17:32:25.127Z,1
2022-11-16T17:33:24.466Z,1
2022-11-16T17:34:26.995Z,1
2022-11-16T17:44:31.947Z,1
2022-11-16T17:56:24.913Z,0
2022-11-16T17:57:24.701Z,0
2022-11-16T17:59:32.162Z,0
2022-11-16T18:10:31.347Z,0
2022-11-16T18:12:24.416Z,0
2022-11-16T18:15:48.733Z,0
2022-11-16T18:17:24.219Z,1
2022-11-16T18:21:31.501Z,1
2022-11-16T18:50:37.104Z,1
2022-11-16T18:59:04.212Z,1
2022-11-16T19:01:26.045Z,1
2022-11-16T19:08:25.085Z,1
2022-11-16T19:09:24.497Z,1
2022-11-16T19:18:34.767Z,1
2022-11-16T19:30:24.864Z,1
2022-11-16T19:40:31.223Z,0
2022-11-16T19:44:24.387Z,0
2022-11-16T19:49:32.451Z,0
2022-11-16T20:01:25.743Z,0
2022-11-16T20:05:24.579Z,3
2022-11-16T20:06:24.617Z,3
2022-11-16T20:07:25.015Z,3
2022-11-16T20:08:23.610Z,3
2022-11-16T20:09:23.422Z,3
2022-11-16T20:11:23.488Z,3
2022-11-16T20:17:24.297Z,3
2022-11-16T20:18:24.943Z,3
2022-11-16T20:32:23.890Z,4
2022-11-16T20:50:25.136Z,3
2022-11-16T20:55:24.912Z,3
2022-11-16T20:56:24.791Z,3
2022-11-16T21:15:24.964Z,1
2022-11-16T21:16:24.151Z,1
2022-11-16T21:19:24.523Z,1
2022-11-16T21:20:39.461Z,1
2022-11-16T21:27:24.477Z,1
2022-11-16T21:28:29.898Z,1
2022-11-16T21:31:25.228Z,1
2022-11-16T21:33:24.824Z,0
2022-11-16T21:40:23.995Z,0
2022-11-16T21:50:55.003Z,5
2022-11-16T21:51:24.863Z,5
2022-11-16T21:52:25.207Z,5
2022-11-16T21:53:24.814Z,5
2022-11-16T21:54:24.671Z,5
2022-11-16T21:55:24.945Z,5
2022-11-16T21:57:25.078Z,5
2022-11-16T21:58:24.983Z,5
2022-11-16T22:00:24.936Z,5
2022-11-16T22:01:25.100Z,5
2022-11-16T22:03:24.753Z,1
2022-11-16T22:04:24.487Z,1
2022-11-16T22:05:25.353Z,1
2022-11-16T22:06:24.694Z,1
2022-11-16T22:07:25.403Z,1
2022-11-16T22:08:24.671Z,1
2022-11-16T22:11:24.790Z,1
2022-11-16T22:12:24.775Z,1
2022-11-16T22:13:25.380Z,1
2022-11-16T22:14:24.468Z,1
2022-11-16T22:15:25.244Z,1
2022-11-16T22:19:24.849Z,1
2022-11-16T22:20:25.221Z,1
2022-11-16T22:22:25.480Z,1
2022-11-16T22:24:25.006Z,1
2022-11-16T22:25:25.768Z,1
2022-11-16T22:26:24.655Z,1
2022-11-16T22:27:25.005Z,1
2022-11-16T22:31:25.301Z,1
2022-11-16T22:32:24.636Z,1
2022-11-16T22:33:24.749Z,1
2022-11-16T22:36:24.890Z,1
2022-11-16T22:37:25.215Z,1
2022-11-16T22:38:25.037Z,1
2022-11-16T22:39:25.006Z,1
2022-11-16T22:41:24.842Z,1
2022-11-16T22:42:25.082Z,1
2022-11-16T22:44:25.384Z,1
2022-11-16T22:45:24.663Z,1
2022-11-16T22:48:24.987Z,1
2022-11-16T22:49:25.210Z,1
2022-11-16T22:50:25.137Z,1
2022-11-16T22:52:24.787Z,1
2022-11-16T22:53:25.233Z,1
2022-11-16T22:55:24.875Z,1
2022-11-16T22:56:25.329Z,1
2022-11-16T23:00:24.734Z,1
2022-11-16T23:03:25.800Z,1
2022-11-16T23:05:24.761Z,1
2022-11-16T23:07:25.187Z,1
2022-11-16T23:08:25.063Z,1
2022-11-16T23:09:25.017Z,1
2022-11-16T23:12:24.842Z,1
2022-11-16T23:13:25.137Z,1
2022-11-16T23:16:25.187Z,1
2022-11-16T23:17:25.197Z,1
2022-11-16T23:19:24.805Z,1
2022-11-16T23:27:25.201Z,1
2022-11-16T23:28:24.650Z,1
2022-11-16T23:29:24.731Z,1
2022-11-16T23:30:25.955Z,1
2022-11-16T23:31:24.969Z,1
2022-11-16T23:32:25.714Z,1
2022-11-16T23:34:24.633Z,1
2022-11-16T23:35:25.100Z,1
2022-11-16T23:37:24.852Z,1
2022-11-16T23:38:25.302Z,1
2022-11-16T23:39:25.263Z,1
2022-11-16T23:41:24.914Z,1
2022-11-16T23:42:25.422Z,1
2022-11-16T23:43:24.658Z,1
2022-11-16T23:44:25.130Z,1
2022-11-16T23:46:25.313Z,1
2022-11-16T23:47:24.675Z,1
2022-11-16T23:48:25.293Z,1
2022-11-16T23:52:24.668Z,1
2022-11-16T23:53:25.016Z,1
2022-11-16T23:58:24.751Z,4
